createdAt,value
2019-03-03T00:00:42.217Z,4.65
2019-03-03T00:03:01.097Z,4.65
2019-03-03T00:03:17.168Z,4.64
2019-03-03T00:06:26.692Z,4.63
2019-03-03T00:09:08.182Z,4.66
2019-03-03T00:14:56.076Z,4.64
2019-03-03T00:17:26.747Z,4.67
2019-03-03T00:24:38.055Z,4.68
2019-03-03T00:26:58.201Z,4.65
2019-03-03T00:46:58.735Z,4.63
2019-03-03T01:16:16.358Z,4.51
2019-03-03T01:19:11.486Z,4.53
2019-03-03T01:21:49.616Z,4.39
2019-03-03T01:24:46.471Z,4.31
2019-03-03T01:27:20.164Z,4.20
2019-03-03T01:29:52.822Z,4.18
2019-03-03T01:32:22.654Z,4.13
2019-03-03T01:34:52.565Z,4.07
2019-03-03T01:37:24.158Z,3.99
2019-03-03T01:39:55.588Z,3.95
2019-03-03T01:42:25.717Z,3.89
2019-03-03T01:44:55.661Z,3.86
2019-03-03T01:47:27.077Z,3.79
2019-03-03T01:49:59.862Z,3.74
2019-03-03T01:52:31.253Z,3.66
2019-03-03T01:55:01.320Z,3.58
2019-03-03T01:57:31.166Z,3.51
2019-03-03T02:00:01.062Z,3.46
2019-03-03T02:02:32.659Z,3.38
2019-03-03T02:05:02.657Z,3.31
2019-03-03T02:07:32.516Z,3.28
2019-03-03T02:10:02.566Z,3.23
2019-03-03T02:12:32.768Z,3.19
2019-03-03T02:15:02.832Z,3.12
2019-03-03T02:17:32.626Z,3.10
2019-03-03T02:20:03.333Z,3.10
2019-03-03T02:22:37.572Z,3.05
2019-03-03T02:25:12.315Z,3.03
2019-03-03T02:27:43.686Z,2.99
2019-03-03T02:30:17.623Z,3.00
2019-03-03T02:32:48.283Z,2.98
2019-03-03T02:35:18.082Z,2.92
2019-03-03T02:37:47.857Z,2.91
2019-03-03T02:40:20.504Z,2.92
2019-03-03T02:42:50.261Z,2.98
2019-03-03T02:45:20.158Z,2.97
2019-03-03T02:47:49.969Z,2.98
2019-03-03T02:50:21.329Z,3.11
2019-03-03T02:52:51.092Z,3.13
2019-03-03T02:55:20.864Z,3.17
2019-03-03T02:57:50.707Z,3.15
2019-03-03T03:00:24.477Z,3.21
2019-03-03T03:02:55.824Z,3.24
2019-03-03T03:05:40.689Z,3.29
2019-03-03T03:08:18.180Z,3.28
2019-03-03T03:10:52.269Z,3.31
2019-03-03T03:13:35.906Z,3.37
2019-03-03T03:16:25.203Z,3.40
2019-03-03T03:19:02.373Z,3.43
2019-03-03T03:21:49.842Z,3.53
2019-03-03T03:24:21.159Z,3.61
2019-03-03T03:27:07.618Z,3.61
2019-03-03T03:29:54.039Z,3.64
2019-03-03T03:32:41.492Z,3.66
2019-03-03T03:35:12.911Z,3.66
2019-03-03T03:37:44.316Z,3.65
2019-03-03T03:40:18.274Z,3.66
2019-03-03T03:43:04.866Z,3.71
2019-03-03T03:45:48.200Z,3.67
2019-03-03T03:48:28.947Z,3.77
2019-03-03T03:51:18.803Z,3.76
2019-03-03T03:53:52.410Z,3.79
2019-03-03T03:56:33.031Z,3.88
2019-03-03T03:59:10.447Z,3.87
2019-03-03T04:01:41.774Z,3.89
2019-03-03T04:04:13.150Z,3.87
2019-03-03T04:07:02.677Z,3.83
2019-03-03T04:09:42.670Z,3.86
2019-03-03T04:12:19.653Z,3.78
2019-03-03T04:14:53.685Z,3.83
2019-03-03T04:17:39.918Z,3.90
2019-03-03T04:20:20.297Z,3.95
2019-03-03T04:22:54.214Z,3.91
2019-03-03T04:25:34.335Z,3.98
2019-03-03T04:28:21.704Z,3.99
2019-03-03T04:30:53.073Z,3.98
2019-03-03T04:33:42.404Z,3.96
2019-03-03T04:36:13.889Z,3.99
2019-03-03T04:38:45.263Z,3.97
2019-03-03T04:41:22.853Z,3.99
2019-03-03T04:44:00.054Z,3.98
2019-03-03T04:46:46.331Z,3.98
2019-03-03T04:49:17.647Z,4.03
2019-03-03T04:52:05.189Z,4.09
2019-03-03T04:54:52.780Z,4.16
2019-03-03T04:57:36.569Z,4.23
2019-03-03T05:00:13.127Z,4.27
2019-03-03T05:02:47.495Z,4.33
2019-03-03T05:05:18.815Z,4.33
2019-03-03T05:07:53.185Z,4.38
2019-03-03T05:10:24.533Z,4.43
2019-03-03T05:12:58.631Z,4.44
2019-03-03T05:15:46.139Z,4.48
2019-03-03T05:18:17.512Z,4.50
2019-03-03T05:20:51.399Z,4.57
2019-03-03T05:23:21.212Z,4.58
2019-03-03T05:25:51.007Z,4.64
2019-03-03T05:28:20.824Z,4.64
2019-03-03T05:30:50.607Z,4.66
2019-03-03T05:33:20.400Z,4.73
2019-03-03T05:35:50.187Z,4.76
2019-03-03T05:38:19.939Z,4.78
2019-03-03T05:40:49.779Z,4.82
2019-03-03T05:43:19.535Z,4.83
2019-03-03T05:45:50.124Z,4.88
2019-03-03T05:48:19.917Z,4.91
2019-03-03T05:50:49.820Z,4.95
2019-03-03T05:53:20.102Z,4.99
2019-03-03T05:55:49.911Z,5.03
2019-03-03T05:58:19.654Z,5.09
2019-03-03T06:00:49.458Z,5.12
2019-03-03T06:03:19.189Z,5.15
2019-03-03T06:05:48.924Z,5.20
2019-03-03T06:08:18.719Z,5.26
2019-03-03T06:10:48.452Z,5.30
2019-03-03T06:13:18.192Z,5.35
2019-03-03T06:15:47.994Z,5.36
2019-03-03T06:18:17.730Z,5.36
2019-03-03T06:20:47.528Z,5.37
2019-03-03T06:23:17.269Z,5.36
2019-03-03T06:25:47.045Z,5.38
2019-03-03T06:28:16.808Z,5.40
2019-03-03T06:30:48.266Z,5.42
2019-03-03T06:33:18.053Z,5.41
2019-03-03T06:35:47.824Z,5.41
2019-03-03T06:38:17.637Z,5.40
2019-03-03T06:40:47.413Z,5.45
2019-03-03T06:43:17.211Z,5.43
2019-03-03T06:45:46.992Z,5.46
2019-03-03T06:48:16.750Z,5.48
2019-03-03T06:50:46.522Z,5.47
2019-03-03T06:53:16.316Z,5.50
2019-03-03T06:55:46.150Z,5.48
2019-03-03T06:58:15.903Z,5.53
2019-03-03T07:00:45.682Z,5.56
2019-03-03T07:03:15.470Z,5.57
2019-03-03T07:05:45.220Z,5.59
2019-03-03T07:08:15.020Z,5.65
2019-03-03T07:10:44.757Z,5.67
2019-03-03T07:13:14.567Z,5.72
2019-03-03T07:15:44.370Z,5.72
2019-03-03T07:18:14.204Z,5.81
2019-03-03T07:20:43.971Z,5.84
2019-03-03T07:23:13.782Z,5.93
2019-03-03T07:25:43.545Z,6.04
2019-03-03T07:28:13.290Z,6.13
2019-03-03T07:30:43.088Z,6.20
2019-03-03T07:33:13.950Z,6.26
2019-03-03T07:35:43.791Z,6.34
2019-03-03T07:38:13.533Z,6.39
2019-03-03T07:40:43.408Z,6.41
2019-03-03T07:43:13.140Z,6.48
2019-03-03T07:45:42.924Z,6.51
2019-03-03T07:48:12.674Z,6.55
2019-03-03T07:50:42.629Z,6.65
2019-03-03T07:53:12.357Z,6.68
2019-03-03T07:55:42.151Z,6.68
2019-03-03T07:58:11.933Z,6.73
2019-03-03T08:00:41.706Z,6.71
2019-03-03T08:03:11.479Z,6.78
2019-03-03T08:05:41.921Z,6.82
2019-03-03T08:08:11.729Z,6.87
2019-03-03T08:10:41.499Z,6.97
2019-03-03T08:13:11.269Z,7.08
2019-03-03T08:15:41.051Z,7.16
2019-03-03T08:18:10.784Z,7.19
2019-03-03T08:20:40.597Z,7.23
2019-03-03T08:23:32.434Z,7.34
2019-03-03T08:30:32.931Z,7.53
2019-03-03T08:32:22.757Z,7.59
2019-03-03T08:35:07.572Z,7.71
2019-03-03T08:37:46.249Z,7.74
2019-03-03T08:40:25.557Z,7.78
2019-03-03T08:43:07.081Z,7.86
2019-03-03T08:46:12.794Z,7.93
2019-03-03T08:48:57.711Z,8.07
2019-03-03T08:52:11.966Z,8.19
2019-03-03T08:54:36.327Z,8.37
2019-03-03T08:57:45.858Z,8.45
2019-03-03T09:00:15.728Z,8.55
2019-03-03T09:02:53.004Z,8.71
2019-03-03T09:05:35.578Z,8.83
2019-03-03T09:08:33.031Z,8.95
2019-03-03T09:14:18.060Z,8.92
2019-03-03T09:17:06.599Z,8.91
2019-03-03T09:19:59.845Z,8.92
2019-03-03T09:22:50.606Z,8.92
2019-03-03T09:25:47.358Z,8.87
2019-03-03T09:28:43.035Z,8.88
2019-03-03T09:32:53.028Z,8.86
2019-03-03T09:34:13.017Z,8.92
2019-03-03T09:37:04.477Z,9.05
2019-03-03T09:39:39.609Z,9.21
2019-03-03T09:42:16.539Z,9.32
2019-03-03T09:45:07.105Z,9.44
2019-03-03T09:51:23.859Z,9.71
2019-03-03T09:57:04.259Z,10.03
2019-03-03T10:00:11.725Z,10.15
2019-03-03T10:03:42.854Z,10.25
2019-03-03T10:06:21.123Z,10.35
2019-03-03T10:12:38.329Z,10.54
2019-03-03T10:15:25.918Z,10.45
2019-03-03T10:17:59.457Z,10.30
2019-03-03T10:20:40.777Z,10.27
2019-03-03T10:23:19.813Z,10.21
2019-03-03T10:26:27.242Z,10.24
2019-03-03T10:32:13.997Z,10.11
2019-03-03T10:35:24.680Z,10.09
2019-03-03T10:37:58.224Z,10.03
2019-03-03T10:43:33.533Z,10.00
2019-03-03T10:46:05.089Z,10.00
2019-03-03T10:48:54.161Z,10.04
2019-03-03T10:51:32.595Z,10.05
2019-03-03T10:54:16.917Z,10.10
2019-03-03T10:56:52.244Z,10.14
2019-03-03T10:59:27.007Z,10.17
2019-03-03T11:02:17.603Z,10.23
2019-03-03T11:05:05.497Z,10.26
2019-03-03T11:07:52.110Z,10.31
2019-03-03T11:10:35.404Z,10.37
2019-03-03T11:13:17.963Z,10.46
2019-03-03T11:15:59.009Z,10.63
2019-03-03T11:18:38.613Z,10.78
2019-03-03T11:21:14.292Z,10.83
2019-03-03T11:23:59.963Z,10.88
2019-03-03T11:26:48.398Z,10.96
2019-03-03T11:29:34.737Z,11.12
2019-03-03T11:32:20.517Z,11.27
2019-03-03T11:35:11.270Z,11.36
2019-03-03T11:37:48.821Z,11.49
2019-03-03T11:40:39.873Z,11.61
2019-03-03T11:43:42.038Z,11.63
2019-03-03T11:46:43.128Z,11.50
2019-03-03T11:49:34.565Z,11.38
2019-03-03T11:52:08.875Z,11.35
2019-03-03T11:54:45.364Z,11.40
2019-03-03T11:57:42.550Z,11.32
2019-03-03T12:00:34.962Z,11.33
2019-03-03T12:03:27.314Z,11.32
2019-03-03T12:10:08.815Z,11.47
2019-03-03T12:12:56.707Z,11.55
2019-03-03T12:15:40.496Z,11.61
2019-03-03T12:18:32.411Z,11.65
2019-03-03T12:21:20.285Z,11.71
2019-03-03T12:24:00.392Z,11.74
2019-03-03T12:26:55.269Z,11.71
2019-03-03T12:29:34.040Z,11.74
2019-03-03T12:32:08.703Z,11.74
2019-03-03T12:34:47.743Z,11.80
2019-03-03T12:37:28.914Z,11.85
2019-03-03T12:40:15.351Z,11.82
2019-03-03T12:42:54.485Z,11.84
2019-03-03T12:45:31.583Z,11.90
2019-03-03T12:48:20.478Z,11.86
2019-03-03T12:50:54.077Z,11.82
2019-03-03T12:53:31.408Z,11.78
2019-03-03T12:56:21.217Z,11.77
2019-03-03T12:59:04.864Z,11.74
2019-03-03T13:01:43.641Z,11.73
2019-03-03T13:04:18.067Z,11.70
2019-03-03T13:07:16.375Z,11.73
2019-03-03T13:10:06.967Z,11.71
2019-03-03T13:13:13.660Z,11.64
2019-03-03T13:15:26.899Z,11.66
2019-03-03T13:18:10.553Z,11.71
2019-03-03T13:21:02.799Z,11.65
2019-03-03T13:26:52.787Z,11.59
2019-03-03T13:36:02.403Z,11.40
2019-03-03T13:38:42.537Z,11.19
2019-03-03T13:41:37.761Z,11.08
2019-03-03T13:47:23.724Z,10.91
2019-03-03T13:50:09.823Z,10.83
2019-03-03T13:52:42.050Z,10.72
2019-03-03T13:55:31.753Z,10.59
2019-03-03T13:58:05.514Z,10.55
2019-03-03T14:00:38.770Z,10.56
2019-03-03T14:06:06.002Z,10.50
2019-03-03T14:08:41.556Z,10.45
2019-03-03T14:11:34.445Z,10.38
2019-03-03T14:14:03.619Z,10.40
2019-03-03T14:16:49.918Z,10.36
2019-03-03T14:22:37.888Z,10.23
2019-03-03T14:25:36.332Z,10.14
2019-03-03T14:28:23.244Z,10.09
2019-03-03T14:37:50.259Z,10.04
2019-03-03T14:40:41.262Z,10.04
2019-03-03T14:43:20.710Z,10.05
2019-03-03T14:45:52.044Z,10.04
2019-03-03T14:48:31.392Z,10.03
2019-03-03T14:51:01.288Z,10.03
2019-03-03T14:53:31.109Z,9.99
2019-03-03T14:56:08.146Z,10.00
2019-03-03T14:58:43.367Z,9.99
2019-03-03T15:01:14.886Z,9.97
2019-03-03T15:03:44.753Z,10.01
2019-03-03T15:06:23.936Z,9.97
2019-03-03T15:08:46.265Z,9.93
2019-03-03T15:11:16.231Z,9.94
2019-03-03T15:13:46.068Z,9.91
2019-03-03T15:16:16.104Z,9.93
2019-03-03T15:18:46.139Z,9.94
2019-03-03T15:21:24.701Z,9.94
2019-03-03T15:23:50.273Z,9.89
2019-03-03T15:26:33.581Z,9.86
2019-03-03T15:29:38.234Z,9.81
2019-03-03T15:32:08.115Z,9.86
2019-03-03T15:38:00.233Z,9.77
2019-03-03T15:40:39.603Z,9.80
2019-03-03T15:43:37.266Z,9.74
2019-03-03T15:46:05.526Z,9.78
2019-03-03T15:48:38.252Z,9.77
2019-03-03T15:51:12.110Z,9.77
2019-03-03T16:03:15.716Z,9.65
2019-03-03T16:09:01.236Z,9.65
2019-03-03T16:10:46.879Z,9.76
2019-03-03T16:14:46.437Z,9.67
2019-03-03T16:17:49.218Z,9.65
2019-03-03T16:20:42.610Z,9.63
2019-03-03T16:23:21.597Z,9.60
2019-03-03T16:25:53.135Z,9.62
2019-03-03T16:29:00.220Z,9.60
2019-03-03T16:32:01.251Z,9.57
2019-03-03T16:35:13.340Z,9.56
2019-03-03T16:37:48.549Z,9.57
2019-03-03T16:40:39.896Z,9.58
2019-03-03T16:47:06.130Z,9.52
2019-03-03T16:52:53.945Z,9.56
2019-03-03T17:43:51.953Z,9.51
2019-03-03T17:50:18.871Z,9.50
2019-03-03T17:53:02.617Z,9.48
2019-03-03T17:55:48.257Z,9.49
2019-03-03T18:22:01.240Z,9.42
2019-03-03T18:40:15.188Z,9.42
2019-03-03T18:49:38.826Z,9.38
2019-03-03T18:52:18.708Z,9.40
2019-03-03T18:54:53.254Z,9.38
2019-03-03T19:00:26.126Z,9.40
2019-03-03T19:03:38.347Z,9.33
2019-03-03T19:09:30.715Z,9.34
2019-03-03T19:12:05.506Z,9.36
2019-03-03T19:14:52.199Z,9.37
2019-03-03T19:17:22.549Z,9.32
2019-03-03T19:19:55.503Z,9.35
2019-03-03T19:22:29.208Z,9.37
2019-03-03T19:25:27.697Z,9.37
2019-03-03T19:27:50.975Z,9.37
2019-03-03T19:30:29.986Z,9.36
2019-03-03T19:33:48.103Z,9.38
2019-03-03T19:42:11.201Z,9.38
2019-03-03T19:48:14.187Z,9.40
2019-03-03T19:50:50.875Z,9.41
2019-03-03T19:53:26.568Z,9.42
2019-03-03T19:55:57.882Z,9.42
2019-03-03T19:58:31.069Z,9.44
2019-03-03T20:01:04.752Z,9.42
2019-03-03T20:03:36.763Z,9.43
2019-03-03T20:06:08.639Z,9.42
2019-03-03T20:08:38.679Z,9.42
2019-03-03T20:11:13.611Z,9.44
2019-03-03T20:13:46.828Z,9.47
2019-03-03T20:16:22.860Z,9.46
2019-03-03T20:18:57.528Z,9.44
2019-03-03T20:21:29.241Z,9.46
2019-03-03T20:23:59.610Z,9.43
2019-03-03T20:26:32.196Z,9.44
2019-03-03T20:29:11.740Z,9.43
2019-03-03T20:31:42.322Z,9.44
2019-03-03T20:34:24.466Z,9.45
2019-03-03T20:37:01.136Z,9.47
2019-03-03T20:39:47.250Z,9.48
2019-03-03T20:42:21.376Z,9.47
2019-03-03T20:45:01.274Z,9.48
2019-03-03T20:47:45.865Z,9.47
2019-03-03T20:50:24.574Z,9.49
2019-03-03T20:53:03.889Z,9.52
2019-03-03T20:55:40.724Z,9.48
2019-03-03T21:08:05.212Z,9.46
2019-03-03T21:09:56.874Z,9.42
2019-03-03T21:13:24.702Z,9.48
2019-03-03T21:16:07.665Z,9.48
2019-03-03T21:18:54.738Z,9.49
2019-03-03T21:21:31.498Z,9.50
2019-03-03T21:24:21.334Z,9.49
2019-03-03T21:27:22.199Z,9.44
2019-03-03T21:54:05.172Z,9.51
2019-03-03T21:56:34.950Z,9.45
2019-03-03T21:59:04.716Z,9.45
2019-03-03T22:01:34.487Z,9.48
2019-03-03T22:04:05.781Z,9.48
2019-03-03T22:06:38.377Z,9.48
2019-03-03T22:09:08.729Z,9.44
2019-03-03T22:11:38.494Z,9.45
2019-03-03T22:14:08.350Z,9.45
2019-03-03T22:16:38.216Z,9.45
2019-03-03T22:19:08.011Z,9.47
2019-03-03T22:21:37.744Z,9.47
2019-03-03T22:24:07.551Z,9.47
2019-03-03T22:26:37.312Z,9.48
2019-03-03T22:29:10.154Z,9.50
2019-03-03T22:31:40.016Z,9.51
2019-03-03T22:34:09.742Z,9.49
2019-03-03T22:36:39.529Z,9.50
2019-03-03T22:39:09.252Z,9.51
2019-03-03T22:41:39.020Z,9.51
2019-03-03T22:44:08.790Z,9.50
2019-03-03T22:46:38.516Z,9.50
2019-03-03T22:49:08.302Z,9.49
2019-03-03T22:51:38.035Z,9.47
2019-03-03T22:54:07.845Z,9.48
2019-03-03T22:56:37.677Z,9.48
2019-03-03T22:59:07.433Z,9.49
2019-03-03T23:01:37.401Z,9.50
2019-03-03T23:04:13.084Z,9.51
2019-03-03T23:06:48.717Z,9.46
2019-03-03T23:09:30.732Z,9.48
2019-03-03T23:12:27.792Z,9.47
2019-03-03T23:15:00.693Z,9.48
2019-03-03T23:17:36.403Z,9.49
2019-03-03T23:20:21.279Z,9.47
2019-03-03T23:23:15.120Z,9.46
2019-03-03T23:25:52.102Z,9.46
2019-03-03T23:28:21.965Z,9.44
2019-03-03T23:30:51.750Z,9.47
2019-03-03T23:33:21.512Z,9.45
2019-03-03T23:35:51.265Z,9.43
2019-03-03T23:38:21.036Z,9.42
2019-03-03T23:40:50.760Z,9.42
2019-03-03T23:43:20.549Z,9.41
2019-03-03T23:45:50.366Z,9.40
2019-03-03T23:48:20.154Z,9.41
2019-03-03T23:50:49.891Z,9.38
2019-03-03T23:53:19.657Z,9.39
2019-03-03T23:55:49.438Z,9.43
2019-03-03T23:58:19.312Z,9.44
